sensor_id;sensor_type;location;lat;lon;timestamp;P1;durP1;ratioP1;P2;durP2;ratioP2
18084;SDS011;9169;44.492;11.372;2023-10-31T00:01:33;44.47;;;3.57;;
18084;SDS011;9169;44.492;11.372;2023-10-31T00:04:02;40.33;;;3.30;;
18084;SDS011;9169;44.492;11.372;2023-10-31T00:06:30;42.60;;;3.40;;
18084;SDS011;9169;44.492;11.372;2023-10-31T00:08:59;41.03;;;3.10;;
18084;SDS011;9169;44.492;11.372;2023-10-31T00:11:27;41.37;;;3.13;;
18084;SDS011;9169;44.492;11.372;2023-10-31T00:13:56;42.37;;;3.20;;
18084;SDS011;9169;44.492;11.372;2023-10-31T00:16:24;41.47;;;2.90;;
18084;SDS011;9169;44.492;11.372;2023-10-31T00:18:54;44.23;;;3.33;;
18084;SDS011;9169;44.492;11.372;2023-10-31T00:21:23;41.97;;;3.23;;
18084;SDS011;9169;44.492;11.372;2023-10-31T00:23:52;45.30;;;3.47;;
18084;SDS011;9169;44.492;11.372;2023-10-31T00:26:20;41.23;;;2.80;;
18084;SDS011;9169;44.492;11.372;2023-10-31T00:28:52;42.07;;;3.70;;
18084;SDS011;9169;44.492;11.372;2023-10-31T00:31:21;43.93;;;3.37;;
18084;SDS011;9169;44.492;11.372;2023-10-31T00:33:49;42.57;;;3.13;;
18084;SDS011;9169;44.492;11.372;2023-10-31T00:36:18;44.10;;;2.43;;
18084;SDS011;9169;44.492;11.372;2023-10-31T00:38:47;47.10;;;2.60;;
18084;SDS011;9169;44.492;11.372;2023-10-31T00:41:15;47.30;;;2.67;;
18084;SDS011;9169;44.492;11.372;2023-10-31T00:43:44;46.50;;;2.57;;
18084;SDS011;9169;44.492;11.372;2023-10-31T00:46:12;48.33;;;2.80;;
18084;SDS011;9169;44.492;11.372;2023-10-31T00:48:41;46.93;;;2.33;;
18084;SDS011;9169;44.492;11.372;2023-10-31T00:51:09;49.60;;;2.97;;
18084;SDS011;9169;44.492;11.372;2023-10-31T00:53:39;49.30;;;3.10;;
18084;SDS011;9169;44.492;11.372;2023-10-31T00:56:08;47.30;;;2.80;;
18084;SDS011;9169;44.492;11.372;2023-10-31T00:58:36;51.20;;;2.80;;
18084;SDS011;9169;44.492;11.372;2023-10-31T01:01:06;48.70;;;2.20;;
18084;SDS011;9169;44.492;11.372;2023-10-31T01:03:34;48.60;;;2.50;;
18084;SDS011;9169;44.492;11.372;2023-10-31T01:06:04;47.37;;;2.70;;
18084;SDS011;9169;44.492;11.372;2023-10-31T01:08:33;49.93;;;2.83;;
18084;SDS011;9169;44.492;11.372;2023-10-31T01:11:04;51.47;;;2.90;;
18084;SDS011;9169;44.492;11.372;2023-10-31T01:13:33;49.70;;;2.60;;
18084;SDS011;9169;44.492;11.372;2023-10-31T01:16:07;50.40;;;2.77;;
18084;SDS011;9169;44.492;11.372;2023-10-31T01:18:36;48.97;;;2.40;;
18084;SDS011;9169;44.492;11.372;2023-10-31T01:21:06;48.93;;;2.90;;
18084;SDS011;9169;44.492;11.372;2023-10-31T01:23:35;50.60;;;2.53;;
18084;SDS011;9169;44.492;11.372;2023-10-31T01:26:05;48.40;;;2.70;;
18084;SDS011;9169;44.492;11.372;2023-10-31T01:28:34;50.57;;;2.93;;
18084;SDS011;9169;44.492;11.372;2023-10-31T01:31:03;50.87;;;2.80;;
18084;SDS011;9169;44.492;11.372;2023-10-31T01:33:33;50.33;;;2.93;;
18084;SDS011;9169;44.492;11.372;2023-10-31T01:36:01;49.53;;;3.30;;
18084;SDS011;9169;44.492;11.372;2023-10-31T01:38:30;49.07;;;2.77;;
18084;SDS011;9169;44.492;11.372;2023-10-31T01:40:59;47.70;;;2.57;;
18084;SDS011;9169;44.492;11.372;2023-10-31T01:43:32;48.70;;;2.57;;
18084;SDS011;9169;44.492;11.372;2023-10-31T01:46:02;48.37;;;2.90;;
18084;SDS011;9169;44.492;11.372;2023-10-31T01:48:32;46.70;;;2.70;;
18084;SDS011;9169;44.492;11.372;2023-10-31T01:51:01;48.43;;;3.00;;
18084;SDS011;9169;44.492;11.372;2023-10-31T01:53:32;50.00;;;3.20;;
18084;SDS011;9169;44.492;11.372;2023-10-31T01:56:01;49.33;;;2.80;;
18084;SDS011;9169;44.492;11.372;2023-10-31T01:58:34;50.90;;;3.10;;
18084;SDS011;9169;44.492;11.372;2023-10-31T02:01:04;48.97;;;3.23;;
18084;SDS011;9169;44.492;11.372;2023-10-31T02:03:33;49.30;;;3.23;;
18084;SDS011;9169;44.492;11.372;2023-10-31T02:06:02;49.73;;;3.47;;
18084;SDS011;9169;44.492;11.372;2023-10-31T02:08:31;49.80;;;2.70;;
18084;SDS011;9169;44.492;11.372;2023-10-31T02:11:00;49.63;;;3.43;;
18084;SDS011;9169;44.492;11.372;2023-10-31T02:13:30;49.10;;;3.00;;
18084;SDS011;9169;44.492;11.372;2023-10-31T02:16:00;49.73;;;2.97;;
18084;SDS011;9169;44.492;11.372;2023-10-31T02:18:29;51.70;;;2.93;;
18084;SDS011;9169;44.492;11.372;2023-10-31T02:20:58;52.30;;;2.83;;
18084;SDS011;9169;44.492;11.372;2023-10-31T02:23:28;50.53;;;2.83;;
18084;SDS011;9169;44.492;11.372;2023-10-31T02:25:56;57.50;;;3.17;;
18084;SDS011;9169;44.492;11.372;2023-10-31T02:28:25;51.07;;;2.73;;
18084;SDS011;9169;44.492;11.372;2023-10-31T02:30:54;56.33;;;2.83;;
18084;SDS011;9169;44.492;11.372;2023-10-31T02:33:23;56.70;;;2.80;;
18084;SDS011;9169;44.492;11.372;2023-10-31T02:35:52;55.10;;;3.50;;
18084;SDS011;9169;44.492;11.372;2023-10-31T02:38:20;52.00;;;2.90;;
18084;SDS011;9169;44.492;11.372;2023-10-31T02:40:51;52.40;;;2.70;;
18084;SDS011;9169;44.492;11.372;2023-10-31T02:43:20;51.27;;;2.37;;
18084;SDS011;9169;44.492;11.372;2023-10-31T02:45:48;54.03;;;2.90;;
18084;SDS011;9169;44.492;11.372;2023-10-31T02:48:17;55.10;;;2.40;;
18084;SDS011;9169;44.492;11.372;2023-10-31T02:50:47;53.70;;;3.07;;
18084;SDS011;9169;44.492;11.372;2023-10-31T02:53:15;52.63;;;3.27;;
18084;SDS011;9169;44.492;11.372;2023-10-31T02:55:45;52.87;;;2.70;;
18084;SDS011;9169;44.492;11.372;2023-10-31T02:58:15;54.10;;;3.33;;
18084;SDS011;9169;44.492;11.372;2023-10-31T03:00:43;52.90;;;2.80;;
18084;SDS011;9169;44.492;11.372;2023-10-31T03:03:12;52.93;;;2.67;;
18084;SDS011;9169;44.492;11.372;2023-10-31T03:05:41;54.40;;;3.10;;
18084;SDS011;9169;44.492;11.372;2023-10-31T03:08:09;53.63;;;2.87;;
18084;SDS011;9169;44.492;11.372;2023-10-31T03:10:41;55.37;;;2.67;;
18084;SDS011;9169;44.492;11.372;2023-10-31T03:13:10;52.83;;;2.87;;
18084;SDS011;9169;44.492;11.372;2023-10-31T03:15:40;54.17;;;2.80;;
18084;SDS011;9169;44.492;11.372;2023-10-31T03:18:08;53.90;;;2.90;;
18084;SDS011;9169;44.492;11.372;2023-10-31T03:20:37;54.73;;;3.00;;
18084;SDS011;9169;44.492;11.372;2023-10-31T03:23:05;53.60;;;2.77;;
18084;SDS011;9169;44.492;11.372;2023-10-31T03:25:34;55.30;;;3.17;;
18084;SDS011;9169;44.492;11.372;2023-10-31T03:28:02;53.40;;;2.60;;
18084;SDS011;9169;44.492;11.372;2023-10-31T03:30:31;57.00;;;3.17;;
18084;SDS011;9169;44.492;11.372;2023-10-31T03:33:01;53.40;;;2.33;;
18084;SDS011;9169;44.492;11.372;2023-10-31T03:35:30;53.03;;;2.50;;
18084;SDS011;9169;44.492;11.372;2023-10-31T03:37:59;52.37;;;2.40;;
18084;SDS011;9169;44.492;11.372;2023-10-31T03:40:29;53.47;;;2.80;;
18084;SDS011;9169;44.492;11.372;2023-10-31T03:42:57;57.00;;;3.07;;
18084;SDS011;9169;44.492;11.372;2023-10-31T03:45:26;56.10;;;2.90;;
18084;SDS011;9169;44.492;11.372;2023-10-31T03:47:55;57.10;;;3.00;;
18084;SDS011;9169;44.492;11.372;2023-10-31T03:50:25;58.60;;;3.20;;
18084;SDS011;9169;44.492;11.372;2023-10-31T03:52:54;54.53;;;2.60;;
18084;SDS011;9169;44.492;11.372;2023-10-31T03:55:23;55.20;;;3.10;;
18084;SDS011;9169;44.492;11.372;2023-10-31T03:57:51;53.50;;;2.60;;
18084;SDS011;9169;44.492;11.372;2023-10-31T04:00:20;56.37;;;2.77;;
18084;SDS011;9169;44.492;11.372;2023-10-31T04:02:49;51.67;;;2.03;;
18084;SDS011;9169;44.492;11.372;2023-10-31T04:05:18;53.37;;;2.67;;
18084;SDS011;9169;44.492;11.372;2023-10-31T04:07:49;52.37;;;3.10;;
18084;SDS011;9169;44.492;11.372;2023-10-31T04:10:18;52.87;;;2.90;;
18084;SDS011;9169;44.492;11.372;2023-10-31T04:12:48;52.30;;;2.70;;
18084;SDS011;9169;44.492;11.372;2023-10-31T04:15:16;46.53;;;2.53;;
18084;SDS011;9169;44.492;11.372;2023-10-31T04:17:47;51.60;;;3.00;;
18084;SDS011;9169;44.492;11.372;2023-10-31T04:20:15;47.13;;;3.20;;
18084;SDS011;9169;44.492;11.372;2023-10-31T04:22:44;42.67;;;2.43;;
18084;SDS011;9169;44.492;11.372;2023-10-31T04:25:14;38.57;;;2.23;;
18084;SDS011;9169;44.492;11.372;2023-10-31T04:27:43;39.97;;;2.60;;
18084;SDS011;9169;44.492;11.372;2023-10-31T04:30:11;40.93;;;2.50;;
18084;SDS011;9169;44.492;11.372;2023-10-31T04:32:40;34.97;;;2.37;;
18084;SDS011;9169;44.492;11.372;2023-10-31T04:35:09;33.50;;;2.70;;
18084;SDS011;9169;44.492;11.372;2023-10-31T04:37:37;34.43;;;2.43;;
18084;SDS011;9169;44.492;11.372;2023-10-31T04:40:06;30.70;;;2.30;;
18084;SDS011;9169;44.492;11.372;2023-10-31T04:42:38;31.30;;;2.00;;
18084;SDS011;9169;44.492;11.372;2023-10-31T04:45:07;28.77;;;2.40;;
18084;SDS011;9169;44.492;11.372;2023-10-31T04:47:36;25.00;;;2.73;;
18084;SDS011;9169;44.492;11.372;2023-10-31T04:50:05;25.53;;;2.80;;
18084;SDS011;9169;44.492;11.372;2023-10-31T04:52:34;25.20;;;2.50;;
18084;SDS011;9169;44.492;11.372;2023-10-31T04:55:02;28.57;;;2.20;;
18084;SDS011;9169;44.492;11.372;2023-10-31T04:57:31;19.73;;;2.30;;
18084;SDS011;9169;44.492;11.372;2023-10-31T05:00:01;21.40;;;2.20;;
18084;SDS011;9169;44.492;11.372;2023-10-31T05:02:32;23.13;;;2.30;;
18084;SDS011;9169;44.492;11.372;2023-10-31T05:05:02;24.30;;;2.50;;
18084;SDS011;9169;44.492;11.372;2023-10-31T05:07:30;26.77;;;2.47;;
18084;SDS011;9169;44.492;11.372;2023-10-31T05:09:59;25.90;;;2.90;;
18084;SDS011;9169;44.492;11.372;2023-10-31T05:12:28;27.20;;;2.63;;
18084;SDS011;9169;44.492;11.372;2023-10-31T05:14:56;23.47;;;2.30;;
18084;SDS011;9169;44.492;11.372;2023-10-31T05:17:26;22.60;;;2.33;;
18084;SDS011;9169;44.492;11.372;2023-10-31T05:19:55;20.20;;;2.20;;
18084;SDS011;9169;44.492;11.372;2023-10-31T05:22:23;19.87;;;2.57;;
18084;SDS011;9169;44.492;11.372;2023-10-31T05:24:52;22.83;;;2.23;;
18084;SDS011;9169;44.492;11.372;2023-10-31T05:27:21;25.50;;;2.47;;
18084;SDS011;9169;44.492;11.372;2023-10-31T05:29:49;22.77;;;2.67;;
18084;SDS011;9169;44.492;11.372;2023-10-31T05:32:18;21.70;;;2.50;;
18084;SDS011;9169;44.492;11.372;2023-10-31T05:34:48;20.00;;;2.53;;
18084;SDS011;9169;44.492;11.372;2023-10-31T05:37:16;21.27;;;2.50;;
18084;SDS011;9169;44.492;11.372;2023-10-31T05:39:45;23.97;;;2.50;;
18084;SDS011;9169;44.492;11.372;2023-10-31T05:42:13;21.33;;;2.20;;
18084;SDS011;9169;44.492;11.372;2023-10-31T05:44:42;20.27;;;2.57;;
18084;SDS011;9169;44.492;11.372;2023-10-31T05:47:11;20.00;;;2.47;;
18084;SDS011;9169;44.492;11.372;2023-10-31T05:49:42;20.23;;;2.50;;
18084;SDS011;9169;44.492;11.372;2023-10-31T05:52:12;18.17;;;2.03;;
18084;SDS011;9169;44.492;11.372;2023-10-31T05:54:40;16.53;;;2.30;;
18084;SDS011;9169;44.492;11.372;2023-10-31T05:57:09;13.20;;;1.73;;
18084;SDS011;9169;44.492;11.372;2023-10-31T05:59:38;14.30;;;1.90;;
18084;SDS011;9169;44.492;11.372;2023-10-31T06:02:06;13.27;;;1.93;;
18084;SDS011;9169;44.492;11.372;2023-10-31T06:04:35;11.47;;;1.90;;
18084;SDS011;9169;44.492;11.372;2023-10-31T06:07:04;12.60;;;1.97;;
18084;SDS011;9169;44.492;11.372;2023-10-31T06:09:34;16.63;;;1.83;;
18084;SDS011;9169;44.492;11.372;2023-10-31T06:12:02;16.40;;;2.33;;
18084;SDS011;9169;44.492;11.372;2023-10-31T06:14:32;13.83;;;2.27;;
18084;SDS011;9169;44.492;11.372;2023-10-31T06:17:00;16.87;;;2.07;;
18084;SDS011;9169;44.492;11.372;2023-10-31T06:19:29;19.47;;;2.20;;
18084;SDS011;9169;44.492;11.372;2023-10-31T06:22:00;13.30;;;2.10;;
18084;SDS011;9169;44.492;11.372;2023-10-31T06:24:31;13.00;;;2.00;;
18084;SDS011;9169;44.492;11.372;2023-10-31T06:27:01;14.17;;;2.43;;
18084;SDS011;9169;44.492;11.372;2023-10-31T06:29:30;12.67;;;2.23;;
18084;SDS011;9169;44.492;11.372;2023-10-31T06:32:02;12.80;;;2.20;;
18084;SDS011;9169;44.492;11.372;2023-10-31T06:34:31;13.53;;;1.73;;
18084;SDS011;9169;44.492;11.372;2023-10-31T06:36:59;16.03;;;2.37;;
18084;SDS011;9169;44.492;11.372;2023-10-31T06:39:28;14.10;;;2.20;;
18084;SDS011;9169;44.492;11.372;2023-10-31T06:41:57;13.47;;;2.00;;
18084;SDS011;9169;44.492;11.372;2023-10-31T06:44:26;12.10;;;2.20;;
18084;SDS011;9169;44.492;11.372;2023-10-31T06:46:55;10.33;;;1.80;;
18084;SDS011;9169;44.492;11.372;2023-10-31T06:49:23;10.80;;;1.90;;
18084;SDS011;9169;44.492;11.372;2023-10-31T06:51:52;11.77;;;1.90;;
18084;SDS011;9169;44.492;11.372;2023-10-31T06:54:20;9.57;;;1.90;;
18084;SDS011;9169;44.492;11.372;2023-10-31T06:56:49;10.63;;;1.80;;
18084;SDS011;9169;44.492;11.372;2023-10-31T06:59:17;12.87;;;1.87;;
18084;SDS011;9169;44.492;11.372;2023-10-31T07:01:47;9.33;;;1.87;;
18084;SDS011;9169;44.492;11.372;2023-10-31T07:04:16;9.70;;;2.20;;
18084;SDS011;9169;44.492;11.372;2023-10-31T07:06:44;8.13;;;1.60;;
18084;SDS011;9169;44.492;11.372;2023-10-31T07:09:14;9.67;;;1.70;;
18084;SDS011;9169;44.492;11.372;2023-10-31T07:11:43;7.80;;;2.00;;
18084;SDS011;9169;44.492;11.372;2023-10-31T07:14:11;11.03;;;2.30;;
18084;SDS011;9169;44.492;11.372;2023-10-31T07:16:40;9.87;;;2.07;;
18084;SDS011;9169;44.492;11.372;2023-10-31T07:19:11;14.37;;;2.17;;
18084;SDS011;9169;44.492;11.372;2023-10-31T07:21:40;11.70;;;2.33;;
18084;SDS011;9169;44.492;11.372;2023-10-31T07:24:09;9.93;;;2.63;;
18084;SDS011;9169;44.492;11.372;2023-10-31T07:26:37;9.10;;;2.50;;
18084;SDS011;9169;44.492;11.372;2023-10-31T07:29:06;11.20;;;2.27;;
18084;SDS011;9169;44.492;11.372;2023-10-31T07:31:35;9.70;;;2.03;;
18084;SDS011;9169;44.492;11.372;2023-10-31T07:34:05;13.20;;;2.60;;
18084;SDS011;9169;44.492;11.372;2023-10-31T07:36:35;13.23;;;2.50;;
18084;SDS011;9169;44.492;11.372;2023-10-31T07:39:03;14.00;;;2.47;;
18084;SDS011;9169;44.492;11.372;2023-10-31T07:41:32;10.60;;;2.43;;
18084;SDS011;9169;44.492;11.372;2023-10-31T07:44:00;9.97;;;2.30;;
18084;SDS011;9169;44.492;11.372;2023-10-31T07:46:29;17.77;;;2.97;;
18084;SDS011;9169;44.492;11.372;2023-10-31T07:48:57;12.37;;;2.43;;
18084;SDS011;9169;44.492;11.372;2023-10-31T07:51:28;10.93;;;2.00;;
18084;SDS011;9169;44.492;11.372;2023-10-31T07:53:58;8.83;;;2.37;;
18084;SDS011;9169;44.492;11.372;2023-10-31T07:56:27;13.43;;;3.07;;
18084;SDS011;9169;44.492;11.372;2023-10-31T07:58:56;10.33;;;2.47;;
18084;SDS011;9169;44.492;11.372;2023-10-31T08:01:24;11.47;;;2.40;;
18084;SDS011;9169;44.492;11.372;2023-10-31T08:03:54;6.33;;;1.97;;
18084;SDS011;9169;44.492;11.372;2023-10-31T08:06:23;5.43;;;2.07;;
18084;SDS011;9169;44.492;11.372;2023-10-31T08:08:51;9.43;;;2.50;;
18084;SDS011;9169;44.492;11.372;2023-10-31T08:11:21;9.30;;;2.70;;
18084;SDS011;9169;44.492;11.372;2023-10-31T08:13:49;13.53;;;2.30;;
18084;SDS011;9169;44.492;11.372;2023-10-31T08:16:18;5.40;;;1.43;;
18084;SDS011;9169;44.492;11.372;2023-10-31T08:18:47;18.40;;;1.53;;
18084;SDS011;9169;44.492;11.372;2023-10-31T08:21:16;4.80;;;1.50;;
18084;SDS011;9169;44.492;11.372;2023-10-31T08:23:45;7.43;;;1.80;;
18084;SDS011;9169;44.492;11.372;2023-10-31T08:26:13;8.37;;;1.40;;
18084;SDS011;9169;44.492;11.372;2023-10-31T08:28:43;8.90;;;1.37;;
18084;SDS011;9169;44.492;11.372;2023-10-31T08:31:12;10.43;;;1.70;;
18084;SDS011;9169;44.492;11.372;2023-10-31T08:33:40;15.50;;;1.60;;
18084;SDS011;9169;44.492;11.372;2023-10-31T08:36:09;15.00;;;1.73;;
18084;SDS011;9169;44.492;11.372;2023-10-31T08:38:37;21.70;;;2.00;;
18084;SDS011;9169;44.492;11.372;2023-10-31T08:41:06;20.20;;;1.40;;
18084;SDS011;9169;44.492;11.372;2023-10-31T08:43:35;17.00;;;1.70;;
18084;SDS011;9169;44.492;11.372;2023-10-31T08:46:05;19.17;;;1.60;;
18084;SDS011;9169;44.492;11.372;2023-10-31T08:48:33;22.90;;;1.70;;
18084;SDS011;9169;44.492;11.372;2023-10-31T08:51:02;26.80;;;1.63;;
18084;SDS011;9169;44.492;11.372;2023-10-31T08:53:31;23.67;;;1.70;;
18084;SDS011;9169;44.492;11.372;2023-10-31T08:55:59;23.43;;;1.33;;
18084;SDS011;9169;44.492;11.372;2023-10-31T08:58:28;20.80;;;1.70;;
18084;SDS011;9169;44.492;11.372;2023-10-31T09:00:57;20.17;;;1.50;;
18084;SDS011;9169;44.492;11.372;2023-10-31T09:03:27;21.17;;;1.50;;
18084;SDS011;9169;44.492;11.372;2023-10-31T09:05:55;16.70;;;1.20;;
18084;SDS011;9169;44.492;11.372;2023-10-31T09:08:24;20.90;;;1.40;;
18084;SDS011;9169;44.492;11.372;2023-10-31T09:10:54;15.40;;;1.47;;
18084;SDS011;9169;44.492;11.372;2023-10-31T09:13:22;13.30;;;1.40;;
18084;SDS011;9169;44.492;11.372;2023-10-31T09:15:51;11.87;;;1.20;;
18084;SDS011;9169;44.492;11.372;2023-10-31T09:18:20;12.30;;;1.30;;
18084;SDS011;9169;44.492;11.372;2023-10-31T09:20:50;11.47;;;1.20;;
18084;SDS011;9169;44.492;11.372;2023-10-31T09:23:18;11.20;;;1.10;;
18084;SDS011;9169;44.492;11.372;2023-10-31T09:25:47;16.67;;;1.30;;
18084;SDS011;9169;44.492;11.372;2023-10-31T09:28:16;10.53;;;1.20;;
18084;SDS011;9169;44.492;11.372;2023-10-31T09:30:45;9.47;;;1.23;;
18084;SDS011;9169;44.492;11.372;2023-10-31T09:33:14;7.50;;;1.30;;
18084;SDS011;9169;44.492;11.372;2023-10-31T09:35:42;8.93;;;1.30;;
18084;SDS011;9169;44.492;11.372;2023-10-31T09:38:12;7.50;;;1.30;;
18084;SDS011;9169;44.492;11.372;2023-10-31T09:40:41;7.27;;;1.20;;
18084;SDS011;9169;44.492;11.372;2023-10-31T09:43:09;6.87;;;1.30;;
18084;SDS011;9169;44.492;11.372;2023-10-31T09:45:38;7.97;;;1.20;;
18084;SDS011;9169;44.492;11.372;2023-10-31T09:48:08;5.57;;;1.23;;
18084;SDS011;9169;44.492;11.372;2023-10-31T09:50:37;5.30;;;1.13;;
18084;SDS011;9169;44.492;11.372;2023-10-31T09:53:06;5.53;;;1.13;;
18084;SDS011;9169;44.492;11.372;2023-10-31T09:55:37;10.73;;;1.30;;
18084;SDS011;9169;44.492;11.372;2023-10-31T09:58:07;4.47;;;1.07;;
18084;SDS011;9169;44.492;11.372;2023-10-31T10:00:36;3.87;;;1.00;;
18084;SDS011;9169;44.492;11.372;2023-10-31T10:03:06;4.27;;;1.10;;
18084;SDS011;9169;44.492;11.372;2023-10-31T10:05:36;5.17;;;1.10;;
18084;SDS011;9169;44.492;11.372;2023-10-31T10:08:06;4.77;;;1.10;;
18084;SDS011;9169;44.492;11.372;2023-10-31T10:10:35;6.43;;;1.20;;
18084;SDS011;9169;44.492;11.372;2023-10-31T10:13:05;4.77;;;1.50;;
18084;SDS011;9169;44.492;11.372;2023-10-31T10:15:43;10.53;;;1.20;;
18084;SDS011;9169;44.492;11.372;2023-10-31T10:18:22;3.80;;;1.20;;
18084;SDS011;9169;44.492;11.372;2023-10-31T10:20:56;4.33;;;1.23;;
18084;SDS011;9169;44.492;11.372;2023-10-31T10:23:25;3.40;;;1.20;;
18084;SDS011;9169;44.492;11.372;2023-10-31T10:25:56;6.10;;;1.40;;
18084;SDS011;9169;44.492;11.372;2023-10-31T10:28:26;4.37;;;1.40;;
18084;SDS011;9169;44.492;11.372;2023-10-31T10:30:56;3.90;;;1.17;;
18084;SDS011;9169;44.492;11.372;2023-10-31T10:33:24;3.37;;;1.13;;
18084;SDS011;9169;44.492;11.372;2023-10-31T10:35:53;3.60;;;1.20;;
18084;SDS011;9169;44.492;11.372;2023-10-31T10:38:23;3.30;;;1.20;;
18084;SDS011;9169;44.492;11.372;2023-10-31T10:40:52;4.03;;;1.10;;
18084;SDS011;9169;44.492;11.372;2023-10-31T10:43:24;3.10;;;1.10;;
18084;SDS011;9169;44.492;11.372;2023-10-31T10:45:54;3.30;;;1.33;;
18084;SDS011;9169;44.492;11.372;2023-10-31T10:48:24;3.27;;;1.27;;
18084;SDS011;9169;44.492;11.372;2023-10-31T10:50:57;5.03;;;1.70;;
18084;SDS011;9169;44.492;11.372;2023-10-31T10:53:29;4.23;;;1.20;;
18084;SDS011;9169;44.492;11.372;2023-10-31T10:56:03;3.00;;;1.23;;
18084;SDS011;9169;44.492;11.372;2023-10-31T10:58:49;3.30;;;1.20;;
18084;SDS011;9169;44.492;11.372;2023-10-31T11:01:20;6.03;;;1.10;;
18084;SDS011;9169;44.492;11.372;2023-10-31T11:03:49;3.83;;;1.57;;
18084;SDS011;9169;44.492;11.372;2023-10-31T11:06:19;4.60;;;1.20;;
18084;SDS011;9169;44.492;11.372;2023-10-31T11:08:48;3.33;;;1.00;;
18084;SDS011;9169;44.492;11.372;2023-10-31T11:11:19;3.37;;;1.33;;
18084;SDS011;9169;44.492;11.372;2023-10-31T11:13:51;3.80;;;1.00;;
18084;SDS011;9169;44.492;11.372;2023-10-31T11:16:22;3.30;;;1.20;;
18084;SDS011;9169;44.492;11.372;2023-10-31T11:18:57;5.23;;;1.33;;
18084;SDS011;9169;44.492;11.372;2023-10-31T11:21:27;3.30;;;1.30;;
18084;SDS011;9169;44.492;11.372;2023-10-31T11:23:57;3.93;;;1.43;;
18084;SDS011;9169;44.492;11.372;2023-10-31T11:26:26;4.33;;;1.43;;
18084;SDS011;9169;44.492;11.372;2023-10-31T11:29:04;3.80;;;1.33;;
18084;SDS011;9169;44.492;11.372;2023-10-31T11:31:33;3.20;;;1.30;;
18084;SDS011;9169;44.492;11.372;2023-10-31T11:34:01;2.70;;;1.10;;
18084;SDS011;9169;44.492;11.372;2023-10-31T11:36:30;3.00;;;1.30;;
18084;SDS011;9169;44.492;11.372;2023-10-31T11:39:10;7.40;;;1.30;;
18084;SDS011;9169;44.492;11.372;2023-10-31T11:41:42;3.57;;;1.50;;
18084;SDS011;9169;44.492;11.372;2023-10-31T11:44:17;4.03;;;1.30;;
18084;SDS011;9169;44.492;11.372;2023-10-31T11:46:45;3.30;;;1.10;;
18084;SDS011;9169;44.492;11.372;2023-10-31T11:49:17;3.00;;;1.23;;
18084;SDS011;9169;44.492;11.372;2023-10-31T11:51:46;3.30;;;1.20;;
18084;SDS011;9169;44.492;11.372;2023-10-31T11:54:14;2.83;;;1.20;;
18084;SDS011;9169;44.492;11.372;2023-10-31T11:56:50;3.70;;;1.57;;
18084;SDS011;9169;44.492;11.372;2023-10-31T11:59:20;3.63;;;1.37;;
18084;SDS011;9169;44.492;11.372;2023-10-31T12:01:49;2.77;;;1.17;;
18084;SDS011;9169;44.492;11.372;2023-10-31T12:04:21;2.90;;;1.33;;
18084;SDS011;9169;44.492;11.372;2023-10-31T12:06:57;3.90;;;1.23;;
18084;SDS011;9169;44.492;11.372;2023-10-31T12:09:26;3.63;;;1.30;;
18084;SDS011;9169;44.492;11.372;2023-10-31T12:11:56;3.13;;;1.10;;
18084;SDS011;9169;44.492;11.372;2023-10-31T12:14:26;3.00;;;1.40;;
18084;SDS011;9169;44.492;11.372;2023-10-31T12:16:54;4.80;;;1.50;;
18084;SDS011;9169;44.492;11.372;2023-10-31T12:19:23;3.50;;;1.50;;
18084;SDS011;9169;44.492;11.372;2023-10-31T12:21:52;2.90;;;1.20;;
18084;SDS011;9169;44.492;11.372;2023-10-31T12:24:22;3.03;;;1.20;;
18084;SDS011;9169;44.492;11.372;2023-10-31T12:26:51;3.93;;;1.50;;
18084;SDS011;9169;44.492;11.372;2023-10-31T12:29:20;7.03;;;1.53;;
18084;SDS011;9169;44.492;11.372;2023-10-31T12:31:51;3.00;;;1.20;;
18084;SDS011;9169;44.492;11.372;2023-10-31T12:34:21;3.83;;;1.50;;
18084;SDS011;9169;44.492;11.372;2023-10-31T12:36:50;3.50;;;1.20;;
18084;SDS011;9169;44.492;11.372;2023-10-31T12:39:20;3.67;;;1.30;;
18084;SDS011;9169;44.492;11.372;2023-10-31T12:41:50;5.07;;;1.30;;
18084;SDS011;9169;44.492;11.372;2023-10-31T12:44:21;6.43;;;1.30;;
18084;SDS011;9169;44.492;11.372;2023-10-31T12:46:55;2.93;;;1.10;;
18084;SDS011;9169;44.492;11.372;2023-10-31T12:49:23;3.07;;;1.30;;
18084;SDS011;9169;44.492;11.372;2023-10-31T12:51:57;3.90;;;1.53;;
18084;SDS011;9169;44.492;11.372;2023-10-31T12:54:30;3.23;;;1.30;;
18084;SDS011;9169;44.492;11.372;2023-10-31T12:56:59;3.60;;;1.40;;
18084;SDS011;9169;44.492;11.372;2023-10-31T12:59:29;5.23;;;1.40;;
18084;SDS011;9169;44.492;11.372;2023-10-31T13:01:59;5.33;;;1.63;;
18084;SDS011;9169;44.492;11.372;2023-10-31T13:04:28;4.10;;;1.60;;
18084;SDS011;9169;44.492;11.372;2023-10-31T13:06:57;4.60;;;1.50;;
18084;SDS011;9169;44.492;11.372;2023-10-31T13:09:30;3.30;;;1.30;;
18084;SDS011;9169;44.492;11.372;2023-10-31T13:12:00;3.70;;;1.30;;
18084;SDS011;9169;44.492;11.372;2023-10-31T13:14:29;4.60;;;1.40;;
18084;SDS011;9169;44.492;11.372;2023-10-31T13:16:59;3.50;;;1.37;;
18084;SDS011;9169;44.492;11.372;2023-10-31T13:19:29;5.37;;;1.80;;
18084;SDS011;9169;44.492;11.372;2023-10-31T13:21:57;5.93;;;1.80;;
18084;SDS011;9169;44.492;11.372;2023-10-31T13:24:26;5.60;;;1.70;;
18084;SDS011;9169;44.492;11.372;2023-10-31T13:26:55;9.63;;;1.30;;
18084;SDS011;9169;44.492;11.372;2023-10-31T13:29:23;6.67;;;1.70;;
18084;SDS011;9169;44.492;11.372;2023-10-31T13:31:54;4.00;;;1.63;;
18084;SDS011;9169;44.492;11.372;2023-10-31T13:34:24;7.50;;;1.97;;
18084;SDS011;9169;44.492;11.372;2023-10-31T13:36:52;8.60;;;2.27;;
18084;SDS011;9169;44.492;11.372;2023-10-31T13:39:21;9.87;;;2.63;;
18084;SDS011;9169;44.492;11.372;2023-10-31T13:41:50;8.03;;;2.00;;
18084;SDS011;9169;44.492;11.372;2023-10-31T13:44:18;8.33;;;2.57;;
18084;SDS011;9169;44.492;11.372;2023-10-31T13:46:47;6.47;;;2.20;;
18084;SDS011;9169;44.492;11.372;2023-10-31T13:49:16;7.27;;;2.20;;
18084;SDS011;9169;44.492;11.372;2023-10-31T13:51:46;11.90;;;3.00;;
18084;SDS011;9169;44.492;11.372;2023-10-31T13:54:15;7.77;;;2.70;;
18084;SDS011;9169;44.492;11.372;2023-10-31T13:56:44;9.60;;;2.37;;
18084;SDS011;9169;44.492;11.372;2023-10-31T13:59:13;8.37;;;2.33;;
18084;SDS011;9169;44.492;11.372;2023-10-31T14:01:42;13.00;;;2.80;;
18084;SDS011;9169;44.492;11.372;2023-10-31T14:04:12;11.80;;;2.87;;
18084;SDS011;9169;44.492;11.372;2023-10-31T14:06:41;9.23;;;2.40;;
18084;SDS011;9169;44.492;11.372;2023-10-31T14:09:12;10.20;;;2.60;;
18084;SDS011;9169;44.492;11.372;2023-10-31T14:11:41;8.10;;;2.40;;
18084;SDS011;9169;44.492;11.372;2023-10-31T14:14:10;10.60;;;3.00;;
18084;SDS011;9169;44.492;11.372;2023-10-31T14:16:40;8.13;;;2.83;;
18084;SDS011;9169;44.492;11.372;2023-10-31T14:19:10;13.90;;;2.87;;
18084;SDS011;9169;44.492;11.372;2023-10-31T14:21:40;11.33;;;2.77;;
18084;SDS011;9169;44.492;11.372;2023-10-31T14:24:08;8.83;;;3.20;;
18084;SDS011;9169;44.492;11.372;2023-10-31T14:26:39;11.60;;;2.67;;
18084;SDS011;9169;44.492;11.372;2023-10-31T14:29:10;8.60;;;2.87;;
18084;SDS011;9169;44.492;11.372;2023-10-31T14:31:39;8.83;;;3.07;;
18084;SDS011;9169;44.492;11.372;2023-10-31T14:34:08;12.60;;;3.43;;
18084;SDS011;9169;44.492;11.372;2023-10-31T14:36:37;12.50;;;3.00;;
18084;SDS011;9169;44.492;11.372;2023-10-31T14:39:06;9.60;;;2.87;;
18084;SDS011;9169;44.492;11.372;2023-10-31T14:41:35;9.63;;;2.73;;
18084;SDS011;9169;44.492;11.372;2023-10-31T14:44:05;7.90;;;2.50;;
18084;SDS011;9169;44.492;11.372;2023-10-31T14:46:35;8.00;;;2.60;;
18084;SDS011;9169;44.492;11.372;2023-10-31T14:49:03;10.73;;;2.80;;
18084;SDS011;9169;44.492;11.372;2023-10-31T14:51:32;7.20;;;2.47;;
18084;SDS011;9169;44.492;11.372;2023-10-31T14:54:00;10.80;;;2.53;;